createdAt,value
2023-01-03T00:00:18.422Z,1016.81
2023-01-03T00:01:18.367Z,1016.78
2023-01-03T00:02:18.425Z,1016.83
2023-01-03T00:03:18.345Z,1016.77
2023-01-03T00:04:18.408Z,1016.82
2023-01-03T00:05:18.316Z,1016.88
2023-01-03T00:06:18.317Z,1016.86
2023-01-03T00:07:18.299Z,1016.83
2023-01-03T00:08:18.288Z,1016.83
2023-01-03T00:09:18.283Z,1016.82
2023-01-03T00:10:18.267Z,1016.88
2023-01-03T00:11:18.267Z,1016.89
2023-01-03T00:12:18.248Z,1016.87
2023-01-03T00:13:18.257Z,1016.91
2023-01-03T00:14:18.228Z,1016.94
2023-01-03T00:15:18.206Z,1016.89
2023-01-03T00:16:18.243Z,1016.98
2023-01-03T00:17:18.271Z,1016.99
2023-01-03T00:18:18.178Z,1017.03
2023-01-03T00:19:18.163Z,1017.07
2023-01-03T00:20:18.150Z,1017.00
2023-01-03T00:21:18.136Z,1017.04
2023-01-03T00:22:18.140Z,1017.04
2023-01-03T00:23:18.126Z,1017.09
2023-01-03T00:24:18.107Z,1017.07
2023-01-03T00:25:18.101Z,1017.08
2023-01-03T00:26:18.078Z,1017.16
2023-01-03T00:27:18.079Z,1017.10
2023-01-03T00:28:18.061Z,1017.12
2023-01-03T00:29:18.090Z,1017.09
2023-01-03T00:30:18.040Z,1017.12
2023-01-03T00:31:18.094Z,1017.18
2023-01-03T00:32:18.023Z,1017.26
2023-01-03T00:33:18.010Z,1017.27
2023-01-03T00:34:17.992Z,1017.33
2023-01-03T00:35:18.036Z,1017.38
2023-01-03T00:36:17.967Z,1017.43
2023-01-03T00:37:17.970Z,1017.41
2023-01-03T00:38:17.956Z,1017.38
2023-01-03T00:39:17.934Z,1017.38
2023-01-03T00:40:17.924Z,1017.41
2023-01-03T00:41:17.939Z,1017.45
2023-01-03T00:42:17.897Z,1017.43
2023-01-03T00:43:17.890Z,1017.46
2023-01-03T00:44:17.879Z,1017.45
2023-01-03T00:45:20.331Z,1017.45
2023-01-03T00:46:17.967Z,1017.46
2023-01-03T00:47:17.847Z,1017.43
2023-01-03T00:48:17.835Z,1017.45
2023-01-03T00:49:17.822Z,1017.48
2023-01-03T00:50:17.814Z,1017.53
2023-01-03T00:51:17.801Z,1017.55
2023-01-03T00:52:17.790Z,1017.59
2023-01-03T00:53:17.774Z,1017.54
2023-01-03T00:54:17.781Z,1017.57
2023-01-03T00:55:17.753Z,1017.56
2023-01-03T00:56:17.747Z,1017.60
2023-01-03T00:57:17.726Z,1017.66
2023-01-03T00:58:17.723Z,1017.67
2023-01-03T00:59:17.715Z,1017.63
2023-01-03T01:00:17.703Z,1017.63
2023-01-03T01:01:17.840Z,1017.63
2023-01-03T01:02:17.975Z,1017.66
2023-01-03T01:03:18.085Z,1017.64
2023-01-03T01:04:17.658Z,1017.66
2023-01-03T01:05:17.659Z,1017.73
2023-01-03T01:06:17.651Z,1017.64
2023-01-03T01:07:17.627Z,1017.65
2023-01-03T01:08:17.606Z,1017.63
2023-01-03T01:09:17.599Z,1017.69
2023-01-03T01:10:17.588Z,1017.66
2023-01-03T01:11:17.586Z,1017.77
2023-01-03T01:12:17.576Z,1017.72
2023-01-03T01:13:17.553Z,1017.80
2023-01-03T01:14:17.544Z,1017.85
2023-01-03T01:15:17.525Z,1017.82
2023-01-03T01:16:17.640Z,1017.81
2023-01-03T01:17:22.363Z,1017.87
2023-01-03T01:18:17.493Z,1017.93
2023-01-03T01:19:17.488Z,1017.96
2023-01-03T01:20:17.471Z,1017.91
2023-01-03T01:21:17.468Z,1017.89
2023-01-03T01:22:17.453Z,1017.97
2023-01-03T01:23:17.437Z,1018.02
2023-01-03T01:24:18.307Z,1017.96
2023-01-03T01:25:17.412Z,1018.07
2023-01-03T01:26:17.405Z,1018.02
2023-01-03T01:27:17.398Z,1018.03
2023-01-03T01:28:17.379Z,1018.09
2023-01-03T01:29:17.417Z,1018.26
2023-01-03T01:30:17.365Z,1018.21
2023-01-03T01:31:17.479Z,1018.25
2023-01-03T01:32:17.339Z,1018.23
2023-01-03T01:33:17.356Z,1018.16
2023-01-03T01:34:17.308Z,1018.19
2023-01-03T01:35:17.305Z,1018.20
2023-01-03T01:36:17.287Z,1018.21
2023-01-03T01:37:17.280Z,1018.20
2023-01-03T01:38:17.263Z,1018.24
2023-01-03T01:39:17.258Z,1018.20
2023-01-03T01:40:17.256Z,1018.28
2023-01-03T01:41:17.300Z,1018.30
2023-01-03T01:42:20.282Z,1018.35
2023-01-03T01:43:17.206Z,1018.29
2023-01-03T01:44:17.215Z,1018.33
2023-01-03T01:45:17.181Z,1018.30
2023-01-03T01:46:17.302Z,1018.34
2023-01-03T01:47:17.167Z,1018.34
2023-01-03T01:48:17.151Z,1018.43
2023-01-03T01:49:17.183Z,1018.45
2023-01-03T01:50:17.139Z,1018.43
2023-01-03T01:51:17.128Z,1018.45
2023-01-03T01:52:17.137Z,1018.46
2023-01-03T01:53:17.096Z,1018.41
2023-01-03T01:54:17.081Z,1018.47
2023-01-03T01:55:17.080Z,1018.42
2023-01-03T01:56:17.064Z,1018.48
2023-01-03T01:57:17.061Z,1018.52
2023-01-03T01:58:17.040Z,1018.50
2023-01-03T01:59:17.031Z,1018.50
2023-01-03T02:00:17.013Z,1018.51
2023-01-03T02:01:17.176Z,1018.51
2023-01-03T02:02:17.152Z,1018.50
2023-01-03T02:03:17.110Z,1018.47
2023-01-03T02:04:16.969Z,1018.51
2023-01-03T02:05:16.982Z,1018.58
2023-01-03T02:06:16.945Z,1018.52
2023-01-03T02:07:16.941Z,1018.53
2023-01-03T02:08:16.937Z,1018.54
2023-01-03T02:09:16.922Z,1018.49
2023-01-03T02:10:16.907Z,1018.51
2023-01-03T02:11:16.897Z,1018.58
2023-01-03T02:12:16.879Z,1018.53
2023-01-03T02:13:16.898Z,1018.55
2023-01-03T02:14:16.861Z,1018.58
2023-01-03T02:15:16.853Z,1018.58
2023-01-03T02:16:16.936Z,1018.66
2023-01-03T02:17:16.823Z,1018.65
2023-01-03T02:18:16.830Z,1018.70
2023-01-03T02:19:16.810Z,1018.64
2023-01-03T02:20:16.799Z,1018.67
2023-01-03T02:21:19.994Z,1018.65
2023-01-03T02:22:16.768Z,1018.68
2023-01-03T02:23:16.761Z,1018.68
2023-01-03T02:24:16.745Z,1018.71
2023-01-03T02:25:16.731Z,1018.68
2023-01-03T02:26:16.765Z,1018.71
2023-01-03T02:27:16.727Z,1018.77
2023-01-03T02:28:16.722Z,1018.74
2023-01-03T02:29:16.698Z,1018.82
2023-01-03T02:30:16.683Z,1018.81
2023-01-03T02:31:16.773Z,1018.84
2023-01-03T02:32:16.660Z,1018.87
2023-01-03T02:33:16.652Z,1018.87
2023-01-03T02:34:16.647Z,1018.93
2023-01-03T02:35:16.635Z,1018.95
2023-01-03T02:36:16.609Z,1019.00
2023-01-03T02:37:16.638Z,1019.03
2023-01-03T02:38:16.590Z,1018.96
2023-01-03T02:39:21.914Z,1018.96
2023-01-03T02:40:16.575Z,1018.99
2023-01-03T02:41:16.557Z,1019.03
2023-01-03T02:42:16.544Z,1019.02
2023-01-03T02:43:16.539Z,1018.96
2023-01-03T02:44:16.540Z,1019.05
2023-01-03T02:45:16.523Z,1019.03
2023-01-03T02:46:16.605Z,1019.06
2023-01-03T02:47:16.489Z,1018.97
2023-01-03T02:48:16.490Z,1019.00
2023-01-03T02:49:16.473Z,1019.01
2023-01-03T02:50:16.457Z,1019.07
2023-01-03T02:51:16.448Z,1019.02
2023-01-03T02:52:16.436Z,1019.03
2023-01-03T02:53:16.448Z,1019.02
2023-01-03T02:54:16.418Z,1019.02
2023-01-03T02:55:16.405Z,1019.03
2023-01-03T02:56:16.403Z,1019.01
2023-01-03T02:57:16.392Z,1019.05
2023-01-03T02:58:16.378Z,1019.05
2023-01-03T02:59:16.359Z,1019.15
2023-01-03T03:00:16.349Z,1019.07
2023-01-03T03:01:16.413Z,1019.14
2023-01-03T03:02:16.500Z,1019.12
2023-01-03T03:03:16.614Z,1019.14
2023-01-03T03:04:16.309Z,1019.21
2023-01-03T03:05:16.284Z,1019.20
2023-01-03T03:06:16.290Z,1019.23
2023-01-03T03:07:16.268Z,1019.24
2023-01-03T03:08:16.267Z,1019.27
2023-01-03T03:09:16.272Z,1019.30
2023-01-03T03:10:16.240Z,1019.32
2023-01-03T03:11:16.234Z,1019.25
2023-01-03T03:12:16.222Z,1019.34
2023-01-03T03:13:16.198Z,1019.33
2023-01-03T03:14:16.193Z,1019.32
2023-01-03T03:15:16.180Z,1019.33
2023-01-03T03:16:16.257Z,1019.33
2023-01-03T03:17:16.165Z,1019.34
2023-01-03T03:18:16.153Z,1019.25
2023-01-03T03:19:16.136Z,1019.36
2023-01-03T03:20:16.134Z,1019.28
2023-01-03T03:21:16.111Z,1019.32
2023-01-03T03:22:16.094Z,1019.30
2023-01-03T03:23:16.086Z,1019.35
2023-01-03T03:24:16.080Z,1019.38
2023-01-03T03:25:16.091Z,1019.38
2023-01-03T03:26:16.069Z,1019.37
2023-01-03T03:27:16.048Z,1019.33
2023-01-03T03:28:16.035Z,1019.43
2023-01-03T03:29:16.052Z,1019.44
2023-01-03T03:30:16.019Z,1019.38
2023-01-03T03:31:16.079Z,1019.43
2023-01-03T03:32:15.997Z,1019.45
2023-01-03T03:33:15.980Z,1019.46
2023-01-03T03:34:15.968Z,1019.44
2023-01-03T03:35:15.958Z,1019.50
2023-01-03T03:36:15.939Z,1019.51
2023-01-03T03:37:15.932Z,1019.45
2023-01-03T03:38:15.922Z,1019.47
2023-01-03T03:39:15.911Z,1019.50
2023-01-03T03:40:15.920Z,1019.47
2023-01-03T03:41:16.010Z,1019.49
2023-01-03T03:42:15.911Z,1019.52
2023-01-03T03:43:15.880Z,1019.54
2023-01-03T03:44:15.865Z,1019.54
2023-01-03T03:45:15.841Z,1019.56
2023-01-03T03:46:15.876Z,1019.50
2023-01-03T03:47:15.881Z,1019.51
2023-01-03T03:48:15.810Z,1019.60
2023-01-03T03:49:15.802Z,1019.52
2023-01-03T03:50:15.790Z,1019.55
2023-01-03T03:51:15.776Z,1019.51
2023-01-03T03:52:15.765Z,1019.55
2023-01-03T03:53:15.763Z,1019.55
2023-01-03T03:54:15.755Z,1019.56
2023-01-03T03:55:15.744Z,1019.61
2023-01-03T03:56:15.728Z,1019.56
2023-01-03T03:57:15.739Z,1019.63
2023-01-03T03:58:15.713Z,1019.59
2023-01-03T03:59:15.715Z,1019.68
2023-01-03T04:00:15.672Z,1019.69
2023-01-03T04:01:15.711Z,1019.71
2023-01-03T04:02:15.818Z,1019.66
2023-01-03T04:03:15.821Z,1019.78
2023-01-03T04:04:15.639Z,1019.76
2023-01-03T04:05:15.630Z,1019.76
2023-01-03T04:06:15.616Z,1019.76
2023-01-03T04:07:15.615Z,1019.74
2023-01-03T04:08:15.592Z,1019.80
2023-01-03T04:09:15.575Z,1019.83
2023-01-03T04:10:15.574Z,1019.79
2023-01-03T04:11:15.566Z,1019.85
2023-01-03T04:12:15.554Z,1019.86
2023-01-03T04:13:15.562Z,1019.86
2023-01-03T04:14:15.528Z,1019.89
2023-01-03T04:15:15.512Z,1019.87
2023-01-03T04:16:15.535Z,1019.86
2023-01-03T04:17:15.494Z,1019.92
2023-01-03T04:18:15.499Z,1019.87
2023-01-03T04:19:15.473Z,1019.90
2023-01-03T04:20:15.463Z,1019.91
2023-01-03T04:21:20.414Z,1019.96
2023-01-03T04:22:15.431Z,1019.96
2023-01-03T04:23:15.424Z,1019.92
2023-01-03T04:24:15.415Z,1019.94
2023-01-03T04:25:15.409Z,1019.99
2023-01-03T04:26:15.387Z,1020.01
2023-01-03T04:27:15.388Z,1020.00
2023-01-03T04:28:15.367Z,1020.04
2023-01-03T04:29:15.386Z,1020.06
2023-01-03T04:30:15.356Z,1020.11
2023-01-03T04:31:15.408Z,1020.13
2023-01-03T04:32:15.444Z,1020.17
2023-01-03T04:33:15.312Z,1020.23
2023-01-03T04:34:15.329Z,1020.21
2023-01-03T04:35:15.287Z,1020.27
2023-01-03T04:36:15.277Z,1020.25
2023-01-03T04:37:15.271Z,1020.25
2023-01-03T04:38:15.263Z,1020.28
2023-01-03T04:39:15.251Z,1020.32
2023-01-03T04:40:15.233Z,1020.29
2023-01-03T04:41:15.219Z,1020.32
2023-01-03T04:42:15.216Z,1020.32
2023-01-03T04:43:15.216Z,1020.32
2023-01-03T04:44:15.202Z,1020.39
2023-01-03T04:45:15.204Z,1020.35
2023-01-03T04:46:15.231Z,1020.37
2023-01-03T04:47:15.162Z,1020.30
2023-01-03T04:48:15.149Z,1020.38
2023-01-03T04:49:15.143Z,1020.47
2023-01-03T04:50:15.123Z,1020.47
2023-01-03T04:51:15.109Z,1020.47
2023-01-03T04:52:15.103Z,1020.46
2023-01-03T04:53:15.099Z,1020.52
2023-01-03T04:54:15.080Z,1020.51
2023-01-03T04:55:15.090Z,1020.55
2023-01-03T04:56:15.089Z,1020.57
2023-01-03T04:57:15.065Z,1020.48
2023-01-03T04:58:15.041Z,1020.57
2023-01-03T04:59:15.028Z,1020.52
2023-01-03T05:00:15.081Z,1020.52
2023-01-03T05:01:15.160Z,1020.53
2023-01-03T05:02:15.165Z,1020.54
2023-01-03T05:03:14.988Z,1020.52
2023-01-03T05:04:15.055Z,1020.54
2023-01-03T05:05:14.979Z,1020.58
2023-01-03T05:06:14.944Z,1020.57
2023-01-03T05:07:14.944Z,1020.62
2023-01-03T05:08:14.926Z,1020.62
2023-01-03T05:09:14.913Z,1020.57
2023-01-03T05:10:14.919Z,1020.57
2023-01-03T05:11:14.896Z,1020.55
2023-01-03T05:12:14.888Z,1020.60
2023-01-03T05:13:14.874Z,1020.65
2023-01-03T05:14:15.009Z,1020.61
2023-01-03T05:15:14.839Z,1020.66
2023-01-03T05:16:14.908Z,1020.65
2023-01-03T05:17:14.854Z,1020.75
2023-01-03T05:18:14.819Z,1020.70
2023-01-03T05:19:14.801Z,1020.67
2023-01-03T05:20:14.791Z,1020.73
2023-01-03T05:21:14.781Z,1020.67
2023-01-03T05:22:14.762Z,1020.76
2023-01-03T05:23:14.757Z,1020.76
2023-01-03T05:24:14.756Z,1020.75
2023-01-03T05:25:14.748Z,1020.80
2023-01-03T05:26:14.735Z,1020.81
2023-01-03T05:27:14.722Z,1020.77
2023-01-03T05:28:17.503Z,1020.81
2023-01-03T05:29:14.685Z,1020.76
2023-01-03T05:30:14.700Z,1020.78
2023-01-03T05:31:14.680Z,1020.79
2023-01-03T05:32:14.739Z,1020.79
2023-01-03T05:33:14.662Z,1020.77
2023-01-03T05:34:14.633Z,1020.78
2023-01-03T05:35:14.619Z,1020.77
2023-01-03T05:36:16.463Z,1020.81
2023-01-03T05:37:14.614Z,1020.80
2023-01-03T05:38:14.586Z,1020.80
2023-01-03T05:39:14.582Z,1020.77
2023-01-03T05:40:14.568Z,1020.80
2023-01-03T05:41:14.551Z,1020.78
2023-01-03T05:42:14.536Z,1020.86
2023-01-03T05:43:14.544Z,1020.83
2023-01-03T05:44:14.534Z,1020.87
2023-01-03T05:45:14.514Z,1020.88
2023-01-03T05:46:14.637Z,1020.95
2023-01-03T05:47:14.479Z,1020.93
2023-01-03T05:48:14.480Z,1020.97
2023-01-03T05:49:14.482Z,1020.99
2023-01-03T05:50:14.447Z,1021.01
2023-01-03T05:51:14.432Z,1020.93
2023-01-03T05:52:14.417Z,1020.93
2023-01-03T05:53:14.412Z,1020.94
2023-01-03T05:54:14.401Z,1020.94
2023-01-03T05:55:14.396Z,1020.95
2023-01-03T05:56:14.393Z,1020.92
2023-01-03T05:57:14.386Z,1020.93
2023-01-03T05:58:14.377Z,1020.98
2023-01-03T05:59:14.370Z,1021.00
2023-01-03T06:00:14.336Z,1020.98
2023-01-03T06:01:14.399Z,1020.96
2023-01-03T06:02:14.432Z,1020.93
2023-01-03T06:03:14.318Z,1020.99
2023-01-03T06:04:14.405Z,1021.01
2023-01-03T06:05:14.320Z,1020.97
2023-01-03T06:06:14.266Z,1021.07
2023-01-03T06:07:14.284Z,1021.01
2023-01-03T06:08:14.247Z,1021.07
2023-01-03T06:09:14.226Z,1021.11
2023-01-03T06:10:14.211Z,1021.08
2023-01-03T06:11:14.242Z,1021.10
2023-01-03T06:12:14.194Z,1021.14
2023-01-03T06:13:14.185Z,1021.07
2023-01-03T06:14:14.172Z,1021.08
2023-01-03T06:15:14.218Z,1021.07
2023-01-03T06:16:14.236Z,1021.08
2023-01-03T06:17:14.170Z,1021.13
2023-01-03T06:18:14.161Z,1021.08
2023-01-03T06:19:14.115Z,1021.20
2023-01-03T06:20:14.114Z,1021.18
2023-01-03T06:21:14.159Z,1021.19
2023-01-03T06:22:14.088Z,1021.22
2023-01-03T06:23:14.064Z,1021.18
2023-01-03T06:24:14.052Z,1021.15
2023-01-03T06:25:14.054Z,1021.25
2023-01-03T06:26:14.046Z,1021.26
2023-01-03T06:27:14.022Z,1021.26
2023-01-03T06:28:14.005Z,1021.22
2023-01-03T06:29:13.995Z,1021.27
2023-01-03T06:30:13.981Z,1021.28
2023-01-03T06:31:14.077Z,1021.23
2023-01-03T06:32:13.963Z,1021.29
2023-01-03T06:33:13.954Z,1021.31
2023-01-03T06:34:13.937Z,1021.26
2023-01-03T06:35:13.939Z,1021.37
2023-01-03T06:36:13.910Z,1021.27
2023-01-03T06:37:13.931Z,1021.28
2023-01-03T06:38:13.898Z,1021.31
2023-01-03T06:39:13.880Z,1021.36
2023-01-03T06:40:13.900Z,1021.40
2023-01-03T06:41:13.880Z,1021.44
2023-01-03T06:42:13.844Z,1021.40
2023-01-03T06:43:13.829Z,1021.38
2023-01-03T06:44:13.820Z,1021.39
2023-01-03T06:45:13.816Z,1021.37
2023-01-03T06:46:13.857Z,1021.42
2023-01-03T06:47:13.802Z,1021.43
2023-01-03T06:48:13.773Z,1021.30
2023-01-03T06:49:13.778Z,1021.38
2023-01-03T06:50:13.786Z,1021.41
2023-01-03T06:51:13.746Z,1021.41
2023-01-03T06:52:13.728Z,1021.42
2023-01-03T06:53:13.746Z,1021.40
2023-01-03T06:54:13.707Z,1021.41
2023-01-03T06:55:13.701Z,1021.42
2023-01-03T06:56:13.702Z,1021.50
2023-01-03T06:57:26.477Z,1021.49
2023-01-03T06:58:13.668Z,1021.50
2023-01-03T06:59:13.651Z,1021.54
2023-01-03T07:00:13.640Z,1021.53
2023-01-03T07:01:13.703Z,1021.63
2023-01-03T07:02:15.834Z,1021.62
2023-01-03T07:03:13.719Z,1021.60
2023-01-03T07:04:13.691Z,1021.63
2023-01-03T07:05:13.585Z,1021.61
2023-01-03T07:06:13.576Z,1021.66
2023-01-03T07:07:13.571Z,1021.77
2023-01-03T07:08:13.552Z,1021.71
2023-01-03T07:09:13.563Z,1021.73
2023-01-03T07:10:13.540Z,1021.73
2023-01-03T07:11:13.532Z,1021.78
2023-01-03T07:12:13.516Z,1021.76
2023-01-03T07:13:13.507Z,1021.78
2023-01-03T07:14:13.486Z,1021.79
2023-01-03T07:15:13.477Z,1021.81
2023-01-03T07:16:13.534Z,1021.76
2023-01-03T07:17:13.451Z,1021.83
2023-01-03T07:18:13.444Z,1021.79
2023-01-03T07:19:13.471Z,1021.93
2023-01-03T07:20:13.425Z,1021.85
2023-01-03T07:21:13.408Z,1021.89
2023-01-03T07:22:13.396Z,1021.86
2023-01-03T07:23:13.383Z,1021.84
2023-01-03T07:24:13.378Z,1021.86
2023-01-03T07:25:13.388Z,1021.88
2023-01-03T07:26:13.363Z,1021.84
2023-01-03T07:27:13.346Z,1021.88
2023-01-03T07:28:13.402Z,1021.95
2023-01-03T07:29:13.323Z,1021.91
2023-01-03T07:30:13.311Z,1021.94
2023-01-03T07:31:13.412Z,1021.98
2023-01-03T07:32:13.291Z,1021.95
2023-01-03T07:33:13.276Z,1021.96
2023-01-03T07:34:13.276Z,1021.94
2023-01-03T07:35:13.249Z,1021.98
2023-01-03T07:36:13.250Z,1021.97
2023-01-03T07:37:13.227Z,1022.03
2023-01-03T07:38:13.216Z,1022.01
2023-01-03T07:39:13.215Z,1021.97
2023-01-03T07:40:13.200Z,1022.02
2023-01-03T07:41:13.271Z,1022.05
2023-01-03T07:42:13.174Z,1022.07
2023-01-03T07:43:13.170Z,1022.05
2023-01-03T07:44:13.154Z,1022.05
2023-01-03T07:45:13.144Z,1022.06
2023-01-03T07:46:13.167Z,1022.00
2023-01-03T07:47:13.118Z,1022.10
2023-01-03T07:48:13.116Z,1022.06
2023-01-03T07:49:13.122Z,1022.01
2023-01-03T07:50:13.085Z,1022.06
2023-01-03T07:51:13.071Z,1022.07
2023-01-03T07:52:13.082Z,1022.05
2023-01-03T07:53:13.064Z,1022.05
2023-01-03T07:54:13.046Z,1022.06
2023-01-03T07:55:13.042Z,1022.04
2023-01-03T07:56:13.696Z,1022.09
2023-01-03T07:57:13.045Z,1022.09
2023-01-03T07:58:13.006Z,1022.09
2023-01-03T07:59:13.000Z,1022.12
2023-01-03T08:00:12.978Z,1022.10
2023-01-03T08:01:13.159Z,1022.13
2023-01-03T08:02:13.146Z,1022.14
2023-01-03T08:03:12.981Z,1022.15
2023-01-03T08:04:12.986Z,1022.07
2023-01-03T08:05:13.001Z,1022.13
2023-01-03T08:06:12.912Z,1022.14
2023-01-03T08:07:12.917Z,1022.09
2023-01-03T08:08:12.896Z,1022.18
2023-01-03T08:09:12.875Z,1022.14
2023-01-03T08:10:12.881Z,1022.12
2023-01-03T08:11:12.909Z,1022.10
2023-01-03T08:12:12.868Z,1022.17
2023-01-03T08:13:12.860Z,1022.21
2023-01-03T08:14:12.826Z,1022.30
2023-01-03T08:15:12.868Z,1022.28
2023-01-03T08:16:12.865Z,1022.48
2023-01-03T08:17:12.853Z,1022.33
2023-01-03T08:18:12.785Z,1022.37
2023-01-03T08:19:12.763Z,1022.39
2023-01-03T08:20:12.761Z,1022.40
2023-01-03T08:21:12.749Z,1022.44
2023-01-03T08:22:12.735Z,1022.38
2023-01-03T08:23:12.723Z,1022.43
2023-01-03T08:24:12.727Z,1022.44
2023-01-03T08:25:12.701Z,1022.45
2023-01-03T08:26:12.696Z,1022.48
2023-01-03T08:27:12.688Z,1022.50
2023-01-03T08:28:12.673Z,1022.49
2023-01-03T08:29:12.685Z,1022.51
2023-01-03T08:30:12.643Z,1022.44
2023-01-03T08:31:12.702Z,1022.51
2023-01-03T08:32:12.641Z,1022.53
2023-01-03T08:33:12.614Z,1022.54
2023-01-03T08:34:18.672Z,1022.55
2023-01-03T08:35:12.600Z,1022.45
2023-01-03T08:36:12.573Z,1022.58
2023-01-03T08:37:12.558Z,1022.63
2023-01-03T08:38:12.550Z,1022.64
2023-01-03T08:39:12.548Z,1022.55
2023-01-03T08:40:12.530Z,1022.63
2023-01-03T08:41:12.524Z,1022.62
2023-01-03T08:42:12.511Z,1022.64
2023-01-03T08:43:12.500Z,1022.60
2023-01-03T08:44:12.505Z,1022.64
2023-01-03T08:45:12.527Z,1022.59
2023-01-03T08:46:12.532Z,1022.60
2023-01-03T08:47:12.573Z,1022.63
2023-01-03T08:48:12.440Z,1022.67
2023-01-03T08:49:12.424Z,1022.61
2023-01-03T08:50:12.459Z,1022.62
2023-01-03T08:51:12.406Z,1022.61
2023-01-03T08:52:12.400Z,1022.65
2023-01-03T08:53:12.434Z,1022.61
2023-01-03T08:54:12.366Z,1022.67
2023-01-03T08:55:12.368Z,1022.61
2023-01-03T08:56:12.345Z,1022.71
2023-01-03T08:57:12.337Z,1022.69
2023-01-03T08:58:12.329Z,1022.66
2023-01-03T08:59:12.305Z,1022.72
2023-01-03T09:00:12.304Z,1022.69
2023-01-03T09:01:12.479Z,1022.70
2023-01-03T09:02:12.525Z,1022.70
2023-01-03T09:03:12.498Z,1022.73
2023-01-03T09:04:12.377Z,1022.73
2023-01-03T09:05:12.238Z,1022.77
2023-01-03T09:06:12.235Z,1022.76
2023-01-03T09:07:12.228Z,1022.75
2023-01-03T09:08:12.208Z,1022.75
2023-01-03T09:09:12.197Z,1022.80
2023-01-03T09:10:12.191Z,1022.83
2023-01-03T09:11:12.176Z,1022.91
2023-01-03T09:12:12.158Z,1022.80
2023-01-03T09:13:12.148Z,1022.91
2023-01-03T09:14:12.140Z,1022.82
2023-01-03T09:15:12.136Z,1022.86
2023-01-03T09:16:12.199Z,1022.87
2023-01-03T09:17:12.187Z,1022.89
2023-01-03T09:18:12.102Z,1022.93
2023-01-03T09:19:12.080Z,1022.95
2023-01-03T09:20:12.075Z,1023.03
2023-01-03T09:21:12.129Z,1023.03
2023-01-03T09:22:12.055Z,1023.01
2023-01-03T09:23:12.042Z,1023.02
2023-01-03T09:24:12.045Z,1023.00
2023-01-03T09:25:12.024Z,1023.02
2023-01-03T09:26:12.005Z,1023.04
2023-01-03T09:27:11.999Z,1022.97
2023-01-03T09:28:11.986Z,1022.97
2023-01-03T09:29:11.966Z,1023.06
2023-01-03T09:30:11.961Z,1023.07
2023-01-03T09:31:11.969Z,1023.06
2023-01-03T09:32:12.035Z,1023.04
2023-01-03T09:33:11.985Z,1023.07
2023-01-03T09:34:11.910Z,1023.03
2023-01-03T09:35:11.913Z,1023.04
2023-01-03T09:36:11.891Z,1023.01
2023-01-03T09:37:11.884Z,1023.03
2023-01-03T09:38:11.881Z,1023.10
2023-01-03T09:39:11.861Z,1023.06
2023-01-03T09:40:11.852Z,1023.09
2023-01-03T09:41:11.837Z,1023.06
2023-01-03T09:42:11.851Z,1022.99
2023-01-03T09:43:11.823Z,1023.04
2023-01-03T09:44:11.803Z,1023.04
2023-01-03T09:45:11.787Z,1023.05
2023-01-03T09:46:11.792Z,1023.11
2023-01-03T09:47:11.839Z,1023.02
2023-01-03T09:48:11.767Z,1023.06
2023-01-03T09:49:11.767Z,1023.06
2023-01-03T09:50:29.570Z,1023.04
2023-01-03T09:51:24.164Z,1023.03
2023-01-03T09:52:11.707Z,1023.07
2023-01-03T09:53:11.694Z,1023.03
2023-01-03T09:54:11.697Z,1023.04
2023-01-03T09:55:11.690Z,1023.07
2023-01-03T09:56:11.663Z,1023.09
2023-01-03T09:57:11.661Z,1023.07
2023-01-03T09:58:11.649Z,1023.07
2023-01-03T09:59:11.640Z,1023.04
2023-01-03T10:00:11.623Z,1023.08
2023-01-03T10:01:11.764Z,1023.06
2023-01-03T10:02:11.891Z,1022.95
2023-01-03T10:03:11.842Z,1022.99
2023-01-03T10:04:11.597Z,1022.94
2023-01-03T10:05:11.604Z,1022.90
2023-01-03T10:06:11.586Z,1022.91
2023-01-03T10:07:11.553Z,1022.98
2023-01-03T10:08:11.568Z,1022.99
2023-01-03T10:09:11.535Z,1022.99
2023-01-03T10:10:14.412Z,1022.95
2023-01-03T10:11:11.516Z,1022.94
2023-01-03T10:12:11.536Z,1022.99
2023-01-03T10:13:17.818Z,1022.99
2023-01-03T10:14:11.474Z,1023.00
2023-01-03T10:15:11.470Z,1023.04
2023-01-03T10:16:11.528Z,1023.06
2023-01-03T10:17:11.475Z,1023.06
2023-01-03T10:18:11.431Z,1023.11
2023-01-03T10:19:11.431Z,1023.09
2023-01-03T10:20:11.400Z,1023.15
2023-01-03T10:21:11.428Z,1023.13
2023-01-03T10:22:11.428Z,1023.07
2023-01-03T10:23:11.414Z,1023.10
2023-01-03T10:24:11.371Z,1023.07
2023-01-03T10:25:11.355Z,1023.08
2023-01-03T10:26:11.337Z,1023.14
2023-01-03T10:27:11.333Z,1023.05
2023-01-03T10:28:11.324Z,1023.06
2023-01-03T10:29:11.316Z,1023.05
2023-01-03T10:30:11.293Z,1023.10
2023-01-03T10:31:11.287Z,1023.02
2023-01-03T10:32:11.387Z,1023.10
2023-01-03T10:33:11.265Z,1023.08
2023-01-03T10:34:11.261Z,1023.07
2023-01-03T10:35:11.246Z,1023.12
2023-01-03T10:36:11.231Z,1023.07
2023-01-03T10:37:11.243Z,1023.07
2023-01-03T10:38:11.209Z,1023.07
2023-01-03T10:39:11.197Z,1023.05
2023-01-03T10:40:11.186Z,1023.07
2023-01-03T10:41:11.171Z,1023.06
2023-01-03T10:42:11.170Z,1023.13
2023-01-03T10:43:11.147Z,1023.10
2023-01-03T10:44:11.141Z,1023.10
2023-01-03T10:45:11.123Z,1023.09
2023-01-03T10:46:11.164Z,1023.11
2023-01-03T10:47:11.107Z,1023.17
2023-01-03T10:48:11.100Z,1023.07
2023-01-03T10:50:11.084Z,1023.04
2023-01-03T10:51:11.062Z,1023.07
2023-01-03T10:52:11.054Z,1023.02
2023-01-03T10:53:11.163Z,1023.01
2023-01-03T10:54:11.027Z,1022.96
2023-01-03T10:55:11.038Z,1022.95
2023-01-03T10:56:11.010Z,1022.98
2023-01-03T10:57:10.988Z,1023.02
2023-01-03T10:58:10.987Z,1022.94
2023-01-03T10:59:10.973Z,1022.98
2023-01-03T11:00:10.963Z,1023.03
2023-01-03T11:01:11.090Z,1023.08
2023-01-03T11:02:11.206Z,1023.02
2023-01-03T11:03:11.124Z,1022.96
2023-01-03T11:04:10.917Z,1023.00
2023-01-03T11:05:10.914Z,1023.00
2023-01-03T11:06:10.892Z,1023.02
2023-01-03T11:07:10.883Z,1023.01
2023-01-03T11:08:10.864Z,1023.08
2023-01-03T11:09:10.892Z,1023.02
2023-01-03T11:10:10.838Z,1023.01
2023-01-03T11:11:10.838Z,1023.05
2023-01-03T11:12:10.827Z,1022.96
2023-01-03T11:13:10.811Z,1023.07
2023-01-03T11:14:10.800Z,1023.01
2023-01-03T11:15:10.788Z,1022.97
2023-01-03T11:16:10.840Z,1023.05
2023-01-03T11:17:10.866Z,1022.94
2023-01-03T11:18:10.762Z,1022.97
2023-01-03T11:19:10.793Z,1022.96
2023-01-03T11:20:10.730Z,1022.94
2023-01-03T11:21:10.726Z,1022.88
2023-01-03T11:22:10.714Z,1022.86
2023-01-03T11:23:10.703Z,1022.91
2023-01-03T11:24:10.684Z,1022.89
2023-01-03T11:25:10.695Z,1022.91
2023-01-03T11:26:10.669Z,1022.87
2023-01-03T11:27:10.659Z,1022.88
2023-01-03T11:28:16.013Z,1022.92
2023-01-03T11:29:10.634Z,1022.93
2023-01-03T11:30:10.624Z,1022.90
2023-01-03T11:31:10.615Z,1022.89
2023-01-03T11:32:10.721Z,1022.87
2023-01-03T11:33:10.590Z,1022.93
2023-01-03T11:34:10.583Z,1022.98
2023-01-03T11:35:25.969Z,1022.98
2023-01-03T11:36:10.553Z,1022.98
2023-01-03T11:37:10.547Z,1022.99
2023-01-03T11:38:10.546Z,1023.00
2023-01-03T11:39:15.362Z,1022.98
2023-01-03T11:40:10.506Z,1023.01
2023-01-03T11:41:10.533Z,1023.03
2023-01-03T11:42:10.500Z,1022.96
2023-01-03T11:43:10.481Z,1023.02
2023-01-03T11:44:10.466Z,1023.08
2023-01-03T11:45:10.454Z,1023.07
2023-01-03T11:46:10.508Z,1023.05
2023-01-03T11:47:10.431Z,1023.05
2023-01-03T11:48:10.412Z,1023.02
2023-01-03T11:49:10.432Z,1023.02
2023-01-03T11:50:10.398Z,1023.03
2023-01-03T11:51:10.387Z,1023.03
2023-01-03T11:52:10.391Z,1023.04
2023-01-03T11:53:10.358Z,1023.09
2023-01-03T11:54:10.345Z,1023.11
2023-01-03T11:55:10.352Z,1023.11
2023-01-03T11:56:10.334Z,1023.13
2023-01-03T11:57:10.350Z,1023.14
2023-01-03T11:58:10.318Z,1023.10
2023-01-03T11:59:10.297Z,1023.09
2023-01-03T12:00:10.282Z,1023.05
2023-01-03T12:01:10.320Z,1023.09
2023-01-03T12:02:10.450Z,1023.06
2023-01-03T12:03:10.427Z,1023.03
2023-01-03T12:04:10.276Z,1023.01
2023-01-03T12:05:10.225Z,1023.06
2023-01-03T12:06:10.221Z,1023.10